createdAt,value
2023-02-17T00:01:24.045Z,96.50
2023-02-17T00:03:51.219Z,96.50
2023-02-17T00:06:18.990Z,96.10
2023-02-17T00:08:46.198Z,96.30
2023-02-17T00:11:13.564Z,96.30
2023-02-17T00:13:47.857Z,96.30
2023-02-17T00:16:22.000Z,96.20
2023-02-17T00:18:54.384Z,96.60
2023-02-17T00:21:21.835Z,96.70
2023-02-17T00:23:49.073Z,96.60
2023-02-17T00:26:16.392Z,96.40
2023-02-17T00:28:43.593Z,96.60
2023-02-17T00:31:18.555Z,96.70
2023-02-17T00:33:45.706Z,96.70
2023-02-17T00:36:13.703Z,96.60
2023-02-17T00:38:41.813Z,96.80
2023-02-17T00:41:10.962Z,97.10
2023-02-17T00:43:38.086Z,97.10
2023-02-17T00:46:05.880Z,96.90
2023-02-17T00:48:33.307Z,97.10
2023-02-17T00:51:00.388Z,97.20
2023-02-17T00:53:28.578Z,97.30
2023-02-17T00:55:55.763Z,97.30
2023-02-17T00:58:22.811Z,97.30
2023-02-17T01:01:14.789Z,97.00
2023-02-17T01:03:43.217Z,97.00
2023-02-17T01:06:11.060Z,97.00
2023-02-17T01:08:38.130Z,97.00
2023-02-17T01:11:05.359Z,97.00
2023-02-17T01:13:33.471Z,97.00
2023-02-17T01:16:00.615Z,97.00
2023-02-17T01:18:27.758Z,97.20
2023-02-17T01:20:55.841Z,97.20
2023-02-17T01:23:22.900Z,97.30
2023-02-17T01:25:50.645Z,97.50
2023-02-17T01:28:29.130Z,97.50
2023-02-17T01:30:56.263Z,97.70
2023-02-17T01:33:23.402Z,97.70
2023-02-17T01:35:52.500Z,97.80
2023-02-17T01:38:19.518Z,97.70
2023-02-17T01:40:47.401Z,97.60
2023-02-17T01:43:18.508Z,97.60
2023-02-17T01:45:52.725Z,97.60
2023-02-17T01:48:46.548Z,97.30
2023-02-17T01:51:51.341Z,97.40
2023-02-17T01:54:22.447Z,97.40
2023-02-17T01:56:49.610Z,97.50
2023-02-17T01:59:42.499Z,97.40
2023-02-17T02:02:09.699Z,97.10
2023-02-17T02:04:37.859Z,97.00
2023-02-17T02:07:05.474Z,97.00
2023-02-17T02:09:36.608Z,96.90
2023-02-17T02:12:03.755Z,96.70
2023-02-17T02:14:32.357Z,96.50
2023-02-17T02:16:59.376Z,96.40
2023-02-17T02:19:34.140Z,96.30
2023-02-17T02:22:10.214Z,96.30
2023-02-17T02:24:49.283Z,96.30
2023-02-17T02:27:16.357Z,96.40
2023-02-17T02:30:02.417Z,96.40
2023-02-17T02:32:41.769Z,96.50
2023-02-17T02:35:11.798Z,96.50
2023-02-17T02:37:50.362Z,96.60
2023-02-17T02:40:17.512Z,96.90
2023-02-17T02:42:44.613Z,97.00
2023-02-17T02:45:11.747Z,97.10
2023-02-17T02:47:45.784Z,97.40
2023-02-17T02:50:17.367Z,97.20
2023-02-17T02:52:55.246Z,97.00
2023-02-17T02:55:34.006Z,97.20
2023-02-17T02:58:12.704Z,97.70
2023-02-17T03:01:06.369Z,97.30
2023-02-17T03:03:39.615Z,97.40
2023-02-17T03:06:30.283Z,97.30
2023-02-17T03:08:59.184Z,97.00
2023-02-17T03:11:32.342Z,97.00
2023-02-17T03:14:04.980Z,97.10
2023-02-17T03:16:32.747Z,97.30
2023-02-17T03:19:00.004Z,97.20
2023-02-17T03:21:31.151Z,97.20
2023-02-17T03:23:58.227Z,97.10
2023-02-17T03:26:25.330Z,97.00
2023-02-17T03:28:52.481Z,97.10
2023-02-17T03:31:19.633Z,97.10
2023-02-17T03:33:46.700Z,97.20
2023-02-17T03:36:13.841Z,96.70
2023-02-17T03:38:40.934Z,96.60
2023-02-17T03:41:07.966Z,96.50
2023-02-17T03:43:35.371Z,96.50
2023-02-17T03:46:02.485Z,96.30
2023-02-17T03:48:29.621Z,96.30
2023-02-17T03:50:56.710Z,96.30
2023-02-17T03:53:24.754Z,96.30
2023-02-17T03:55:51.830Z,96.10
2023-02-17T03:58:18.844Z,96.00
2023-02-17T04:00:45.955Z,95.80
2023-02-17T04:03:12.937Z,96.00
2023-02-17T04:05:40.016Z,96.20
2023-02-17T04:08:07.076Z,95.80
2023-02-17T04:10:34.148Z,95.80
2023-02-17T04:13:01.206Z,96.10
2023-02-17T04:15:29.780Z,95.80
2023-02-17T04:17:56.852Z,95.40
2023-02-17T04:20:23.881Z,95.40
2023-02-17T04:22:50.913Z,95.60
2023-02-17T04:25:17.946Z,95.40
2023-02-17T04:27:45.001Z,95.40
2023-02-17T04:30:12.591Z,95.20
2023-02-17T04:32:39.671Z,95.00
2023-02-17T04:35:06.969Z,95.20
2023-02-17T04:37:34.045Z,95.40
2023-02-17T04:40:01.100Z,95.00
2023-02-17T04:42:28.126Z,95.00
2023-02-17T04:44:55.240Z,95.00
2023-02-17T04:47:22.880Z,95.00
2023-02-17T04:49:49.892Z,95.00
2023-02-17T04:52:16.952Z,95.10
2023-02-17T04:54:43.992Z,94.60
2023-02-17T04:57:11.045Z,94.40
2023-02-17T04:59:38.195Z,94.40
2023-02-17T05:02:05.194Z,94.10
2023-02-17T05:04:32.289Z,94.10
2023-02-17T05:06:59.418Z,94.10
2023-02-17T05:09:26.544Z,93.80
2023-02-17T05:11:53.594Z,94.20
2023-02-17T05:14:20.665Z,94.10
2023-02-17T05:16:47.717Z,93.80
2023-02-17T05:19:14.752Z,93.90
2023-02-17T05:21:41.889Z,93.80
2023-02-17T05:24:08.920Z,93.90
2023-02-17T05:26:35.951Z,94.20
2023-02-17T05:29:03.024Z,94.10
2023-02-17T05:31:30.210Z,94.20
2023-02-17T05:33:57.276Z,94.30
2023-02-17T05:36:24.353Z,94.50
2023-02-17T05:38:51.936Z,94.50
2023-02-17T05:41:18.988Z,94.20
2023-02-17T05:43:46.233Z,94.70
2023-02-17T05:46:14.579Z,94.40
2023-02-17T05:48:41.656Z,94.40
2023-02-17T05:51:08.776Z,94.10
2023-02-17T05:53:35.823Z,94.10
2023-02-17T05:56:02.968Z,94.20
2023-02-17T05:58:30.081Z,94.20
2023-02-17T06:00:57.249Z,94.20
2023-02-17T06:03:24.351Z,94.00
2023-02-17T06:05:51.421Z,94.10
2023-02-17T06:08:18.514Z,94.20
2023-02-17T06:10:45.543Z,94.30
2023-02-17T06:13:12.596Z,94.30
2023-02-17T06:15:39.674Z,94.50
2023-02-17T06:18:06.741Z,94.40
2023-02-17T06:20:33.772Z,94.60
2023-02-17T06:23:00.824Z,94.80
2023-02-17T06:25:27.855Z,94.90
2023-02-17T06:27:54.896Z,95.20
2023-02-17T06:30:22.030Z,96.60
2023-02-17T06:32:49.148Z,97.70
2023-02-17T06:35:16.337Z,98.40
2023-02-17T06:37:43.418Z,99.00
2023-02-17T06:40:10.791Z,99.90
2023-02-17T06:42:37.839Z,99.90
2023-02-17T06:45:06.129Z,99.90
2023-02-17T06:47:38.877Z,99.90
2023-02-17T06:50:06.315Z,99.90
2023-02-17T06:52:33.518Z,99.90
2023-02-17T06:55:00.576Z,99.90
2023-02-17T06:57:28.688Z,99.90
2023-02-17T06:59:55.736Z,99.90
2023-02-17T07:02:22.913Z,99.90
2023-02-17T07:04:50.057Z,99.90
2023-02-17T07:07:17.143Z,99.90
2023-02-17T07:09:44.233Z,99.90
2023-02-17T07:12:11.370Z,99.90
2023-02-17T07:14:38.383Z,99.90
2023-02-17T07:17:05.515Z,99.90
2023-02-17T07:19:32.579Z,99.90
2023-02-17T07:21:59.625Z,99.90
2023-02-17T07:24:26.792Z,99.90
2023-02-17T07:27:00.931Z,99.90
2023-02-17T07:29:28.259Z,99.90
2023-02-17T07:31:55.366Z,99.90
2023-02-17T07:34:22.480Z,99.90
2023-02-17T07:36:49.647Z,99.90
2023-02-17T07:39:16.721Z,99.90
2023-02-17T07:41:43.808Z,99.90
2023-02-17T07:44:11.010Z,99.90
2023-02-17T07:46:42.435Z,99.90
2023-02-17T07:49:09.505Z,99.90
2023-02-17T07:51:36.636Z,99.90
2023-02-17T07:54:05.564Z,99.90
2023-02-17T07:56:37.827Z,99.90
2023-02-17T07:59:08.335Z,99.90
2023-02-17T08:01:35.391Z,99.90
2023-02-17T08:04:02.497Z,99.90
2023-02-17T08:06:29.601Z,99.90
2023-02-17T08:09:15.453Z,99.90
2023-02-17T08:12:01.453Z,99.90
2023-02-17T08:14:29.032Z,99.90
2023-02-17T08:16:56.261Z,99.90
2023-02-17T08:19:23.368Z,99.90
2023-02-17T08:21:50.568Z,99.90
2023-02-17T08:24:19.539Z,99.90
2023-02-17T08:26:47.366Z,99.90
2023-02-17T08:29:15.057Z,99.90
2023-02-17T08:31:42.235Z,99.90
2023-02-17T08:34:09.949Z,99.90
2023-02-17T08:36:40.129Z,99.90
2023-02-17T08:39:10.720Z,99.90
2023-02-17T08:41:38.169Z,99.90
2023-02-17T08:44:09.729Z,99.90
2023-02-17T08:46:37.512Z,99.90
2023-02-17T08:49:05.290Z,99.90
2023-02-17T08:51:32.533Z,99.90
2023-02-17T08:54:00.651Z,99.90
2023-02-17T08:56:27.916Z,99.90
2023-02-17T08:58:56.155Z,99.90
2023-02-17T09:01:23.353Z,99.90
2023-02-17T09:03:50.840Z,99.90
2023-02-17T09:06:17.982Z,99.90
2023-02-17T09:08:45.113Z,99.90
2023-02-17T09:11:12.673Z,99.90
2023-02-17T09:13:39.856Z,99.90
2023-02-17T09:16:07.435Z,99.90
2023-02-17T09:18:34.796Z,99.90
2023-02-17T09:21:05.924Z,99.90
2023-02-17T09:23:34.165Z,99.90
2023-02-17T09:26:05.509Z,99.90
2023-02-17T09:28:35.023Z,99.90
2023-02-17T09:31:09.532Z,99.90
2023-02-17T09:33:37.246Z,99.90
2023-02-17T09:36:05.904Z,99.90
2023-02-17T09:38:33.248Z,99.90
2023-02-17T09:41:03.079Z,99.90
2023-02-17T09:43:30.291Z,99.90
2023-02-17T09:45:58.778Z,99.90
2023-02-17T09:48:26.894Z,99.90
2023-02-17T09:50:56.454Z,99.90
2023-02-17T09:53:26.266Z,99.90
2023-02-17T09:55:53.703Z,99.90
2023-02-17T09:58:43.376Z,99.90
2023-02-17T10:01:12.316Z,99.90
2023-02-17T10:03:40.694Z,99.90
2023-02-17T10:06:11.612Z,99.90
2023-02-17T10:08:40.760Z,99.90
2023-02-17T10:11:14.626Z,99.90
2023-02-17T10:13:42.648Z,99.90
2023-02-17T10:16:10.568Z,99.90
2023-02-17T10:18:39.871Z,99.90
2023-02-17T10:21:19.839Z,99.90
2023-02-17T10:23:47.573Z,99.90
2023-02-17T10:26:20.234Z,99.90
2023-02-17T10:28:49.639Z,99.90
2023-02-17T10:31:26.057Z,99.90
2023-02-17T10:33:55.508Z,99.90
2023-02-17T10:36:24.895Z,99.90
2023-02-17T10:38:52.603Z,99.90
2023-02-17T10:41:21.340Z,99.90
2023-02-17T10:43:48.387Z,99.90
2023-02-17T10:46:15.784Z,99.90
2023-02-17T10:48:47.470Z,99.90
2023-02-17T10:51:14.996Z,99.90
2023-02-17T10:53:42.103Z,99.90
2023-02-17T10:56:14.698Z,99.90
2023-02-17T10:58:45.526Z,99.90
2023-02-17T11:01:12.840Z,99.90
2023-02-17T11:03:41.007Z,99.90
2023-02-17T11:06:18.782Z,99.90
2023-02-17T11:09:07.490Z,99.90
2023-02-17T11:11:35.297Z,99.90
2023-02-17T11:14:06.453Z,99.90
2023-02-17T11:16:35.015Z,99.90
2023-02-17T11:19:03.704Z,99.90
2023-02-17T11:21:33.116Z,99.90
2023-02-17T11:24:01.382Z,99.90
2023-02-17T11:26:29.538Z,99.90
2023-02-17T11:29:06.834Z,99.90
2023-02-17T11:31:34.119Z,99.90
2023-02-17T11:34:11.670Z,99.90
2023-02-17T11:36:38.790Z,99.90
2023-02-17T11:39:21.332Z,99.90
2023-02-17T11:41:48.459Z,99.90
2023-02-17T11:44:25.311Z,99.90
2023-02-17T11:46:55.662Z,99.90
2023-02-17T11:49:29.761Z,99.90
2023-02-17T11:52:03.864Z,99.90
2023-02-17T11:54:40.289Z,99.90
2023-02-17T11:57:22.761Z,99.90
2023-02-17T11:59:53.282Z,99.90
2023-02-17T12:02:36.277Z,99.90
2023-02-17T12:05:15.800Z,99.90
2023-02-17T12:07:46.711Z,99.90
2023-02-17T12:10:20.815Z,99.90
2023-02-17T12:12:54.660Z,99.90
2023-02-17T12:15:21.801Z,99.90
2023-02-17T12:17:55.454Z,99.90
2023-02-17T12:20:41.761Z,99.90
2023-02-17T12:23:21.039Z,99.90
2023-02-17T12:25:57.642Z,99.90
2023-02-17T12:28:43.716Z,99.90
2023-02-17T12:31:23.119Z,99.90
2023-02-17T12:33:54.486Z,99.90
2023-02-17T12:36:22.588Z,99.90
2023-02-17T12:38:50.193Z,99.90
2023-02-17T12:41:21.751Z,99.90
2023-02-17T12:44:08.400Z,99.90
2023-02-17T12:46:37.477Z,99.90
2023-02-17T12:49:18.520Z,99.90
2023-02-17T12:51:47.621Z,99.90
2023-02-17T12:54:19.278Z,99.90
2023-02-17T12:56:50.804Z,99.90
2023-02-17T12:59:19.004Z,99.90
2023-02-17T13:02:05.633Z,99.90
2023-02-17T13:04:33.038Z,99.90
2023-02-17T13:07:21.117Z,99.90
2023-02-17T13:09:48.661Z,99.90
2023-02-17T13:12:17.350Z,99.90
2023-02-17T13:14:48.404Z,99.90
2023-02-17T13:17:34.458Z,99.90
2023-02-17T13:20:07.836Z,99.90
2023-02-17T13:22:35.205Z,99.90
2023-02-17T13:25:02.271Z,99.90
2023-02-17T13:27:32.818Z,99.90
2023-02-17T13:30:18.268Z,99.90
2023-02-17T13:32:45.402Z,99.90
2023-02-17T13:35:24.810Z,99.90
2023-02-17T13:37:51.941Z,99.90
2023-02-17T13:40:19.004Z,99.90
2023-02-17T13:42:49.711Z,99.90
2023-02-17T13:45:20.440Z,99.90
2023-02-17T13:47:47.757Z,99.90
2023-02-17T13:50:28.363Z,99.90
2023-02-17T13:52:55.591Z,99.90
2023-02-17T13:55:24.140Z,99.90
2023-02-17T13:57:52.062Z,99.90
2023-02-17T14:00:19.085Z,99.90
2023-02-17T14:02:57.722Z,99.90
2023-02-17T14:05:34.511Z,99.90
2023-02-17T14:08:08.190Z,99.90
2023-02-17T14:10:35.190Z,99.90
2023-02-17T14:13:03.397Z,99.90
2023-02-17T14:15:30.486Z,99.90
2023-02-17T14:17:57.610Z,99.90
2023-02-17T14:20:28.970Z,99.90
2023-02-17T14:23:14.389Z,99.90
2023-02-17T14:25:46.552Z,99.90
2023-02-17T14:28:55.903Z,99.90
2023-02-17T14:31:23.388Z,99.90
2023-02-17T14:33:55.433Z,99.90
2023-02-17T14:36:26.287Z,99.90
2023-02-17T14:38:57.025Z,99.90
2023-02-17T14:41:24.232Z,99.90
2023-02-17T14:43:51.275Z,99.90
2023-02-17T14:50:12.450Z,99.90
2023-02-17T14:52:49.634Z,99.90
2023-02-17T14:55:39.234Z,99.90
2023-02-17T14:58:06.415Z,99.90
2023-02-17T15:00:59.585Z,99.90
2023-02-17T15:03:26.675Z,99.90
2023-02-17T15:05:53.719Z,99.90
2023-02-17T15:08:22.182Z,99.90
2023-02-17T15:11:18.929Z,99.90
2023-02-17T15:13:46.063Z,99.90
2023-02-17T15:16:13.198Z,99.90
2023-02-17T15:18:41.560Z,99.90
2023-02-17T15:21:14.869Z,99.90
2023-02-17T15:23:41.879Z,99.90
2023-02-17T15:26:09.661Z,99.90
2023-02-17T15:28:36.760Z,99.90
2023-02-17T15:31:04.300Z,99.90
2023-02-17T15:33:31.439Z,99.90
2023-02-17T15:35:58.515Z,99.90
2023-02-17T15:38:27.140Z,99.90
2023-02-17T15:40:58.335Z,99.90
2023-02-17T15:43:30.128Z,99.90
2023-02-17T15:45:57.194Z,99.90
2023-02-17T15:48:25.057Z,99.90
2023-02-17T15:50:52.248Z,99.90
2023-02-17T15:53:20.655Z,99.90
2023-02-17T15:55:47.847Z,99.90
2023-02-17T15:58:18.501Z,99.90
2023-02-17T16:00:46.358Z,99.90
2023-02-17T16:03:13.877Z,99.90
2023-02-17T16:05:41.069Z,99.90
2023-02-17T16:08:08.171Z,99.90
2023-02-17T16:10:35.222Z,99.90
2023-02-17T16:13:02.385Z,99.90
2023-02-17T16:15:30.782Z,99.90
2023-02-17T16:17:58.763Z,99.90
2023-02-17T16:20:26.923Z,99.90
2023-02-17T16:22:54.093Z,99.90
2023-02-17T16:25:21.372Z,99.90
2023-02-17T16:27:49.164Z,99.90
2023-02-17T16:30:16.336Z,99.90
2023-02-17T16:32:43.471Z,99.90
2023-02-17T16:35:14.301Z,99.90
2023-02-17T16:37:41.622Z,99.90
2023-02-17T16:40:17.990Z,99.90
2023-02-17T16:42:45.286Z,99.90
2023-02-17T16:45:16.370Z,99.90
2023-02-17T16:47:47.725Z,99.90
2023-02-17T16:50:33.667Z,99.90
2023-02-17T16:53:01.624Z,99.90
2023-02-17T16:55:29.664Z,99.90
2023-02-17T16:57:57.975Z,99.90
2023-02-17T17:00:27.813Z,99.90
2023-02-17T17:02:55.015Z,99.90
2023-02-17T17:05:22.282Z,99.90
2023-02-17T17:07:51.169Z,99.90
2023-02-17T17:10:41.805Z,99.90
2023-02-17T17:13:09.134Z,99.90
2023-02-17T17:15:36.811Z,99.90
2023-02-17T17:18:09.362Z,99.90
2023-02-17T17:20:37.317Z,99.90
2023-02-17T17:23:08.236Z,99.90
2023-02-17T17:25:35.707Z,99.90
2023-02-17T17:28:02.979Z,99.90
2023-02-17T17:30:31.601Z,99.90
2023-02-17T17:32:58.895Z,99.90
2023-02-17T17:35:26.166Z,99.90
2023-02-17T17:37:53.382Z,99.90
2023-02-17T17:40:21.589Z,99.90
2023-02-17T17:42:48.920Z,99.90
2023-02-17T17:45:19.493Z,99.90
2023-02-17T17:47:46.584Z,99.90
2023-02-17T17:50:19.493Z,99.90
2023-02-17T17:52:52.240Z,99.90
2023-02-17T17:55:19.378Z,99.90
2023-02-17T18:01:23.572Z,99.90
2023-02-17T18:03:50.580Z,99.90
2023-02-17T18:06:31.261Z,99.90
2023-02-17T18:09:00.235Z,99.90
2023-02-17T18:11:27.335Z,99.90
2023-02-17T18:13:54.873Z,99.90
2023-02-17T18:16:22.191Z,99.90
2023-02-17T18:18:49.365Z,99.90
2023-02-17T18:21:17.432Z,99.90
2023-02-17T18:23:44.670Z,99.90
2023-02-17T18:26:12.466Z,99.90
2023-02-17T18:28:40.404Z,99.90
2023-02-17T18:31:11.078Z,99.90
2023-02-17T18:33:38.370Z,99.90
2023-02-17T18:36:06.637Z,99.90
2023-02-17T18:38:33.944Z,99.90
2023-02-17T18:41:00.970Z,99.90
2023-02-17T18:43:28.188Z,99.90
2023-02-17T18:45:55.439Z,99.90
2023-02-17T18:48:22.510Z,99.90
2023-02-17T18:50:50.503Z,99.90
2023-02-17T18:53:17.860Z,99.90
2023-02-17T18:55:44.909Z,99.90
2023-02-17T18:58:12.530Z,99.90
2023-02-17T19:00:39.704Z,99.90
2023-02-17T19:03:06.765Z,99.90
2023-02-17T19:05:33.859Z,99.90
2023-02-17T19:08:00.909Z,99.90
2023-02-17T19:10:28.077Z,99.90
2023-02-17T19:12:55.100Z,99.90
2023-02-17T19:15:22.193Z,99.90
2023-02-17T19:17:50.995Z,99.90
2023-02-17T19:20:18.187Z,99.90
2023-02-17T19:22:45.342Z,99.90
2023-02-17T19:25:12.596Z,99.90
2023-02-17T19:27:40.587Z,99.90
2023-02-17T19:30:08.331Z,99.90
2023-02-17T19:32:35.386Z,99.90
2023-02-17T19:35:02.507Z,99.90
2023-02-17T19:37:29.590Z,99.90
2023-02-17T19:39:56.652Z,99.90
2023-02-17T19:42:23.949Z,99.90
2023-02-17T19:44:50.979Z,99.90
2023-02-17T19:47:18.071Z,99.90
2023-02-17T19:49:45.099Z,99.90
2023-02-17T19:52:12.210Z,99.90
2023-02-17T19:54:39.288Z,99.90
2023-02-17T19:57:06.386Z,99.90
2023-02-17T19:59:34.127Z,99.90
2023-02-17T20:02:01.297Z,99.90
2023-02-17T20:04:28.377Z,99.90
2023-02-17T20:06:55.434Z,99.90
2023-02-17T20:09:22.580Z,99.90
2023-02-17T20:11:50.224Z,99.90
2023-02-17T20:14:17.283Z,99.90
2023-02-17T20:16:44.662Z,99.90
2023-02-17T20:19:12.713Z,99.90
2023-02-17T20:21:42.264Z,99.90
2023-02-17T20:24:09.303Z,99.90
2023-02-17T20:26:38.534Z,99.90
2023-02-17T20:29:05.613Z,99.90
2023-02-17T20:31:33.752Z,99.90
2023-02-17T20:34:01.904Z,99.90
2023-02-17T20:36:29.933Z,99.90
2023-02-17T20:38:56.955Z,99.90
2023-02-17T20:41:24.005Z,99.90
2023-02-17T20:43:51.170Z,99.90
2023-02-17T20:46:27.371Z,99.90
2023-02-17T20:48:54.639Z,99.90
2023-02-17T20:51:21.764Z,99.90
2023-02-17T20:53:48.834Z,99.90
2023-02-17T20:56:17.866Z,99.90
2023-02-17T20:58:45.064Z,99.90
2023-02-17T21:01:12.211Z,99.90
2023-02-17T21:03:39.336Z,99.90
2023-02-17T21:06:11.841Z,99.90
2023-02-17T21:08:38.897Z,99.90
2023-02-17T21:11:05.926Z,99.90
2023-02-17T21:13:33.950Z,99.90
2023-02-17T21:16:00.988Z,99.90
2023-02-17T21:18:29.051Z,99.90
2023-02-17T21:20:56.107Z,99.90
2023-02-17T21:23:23.135Z,99.90
2023-02-17T21:25:50.165Z,99.90
2023-02-17T21:28:17.736Z,99.90
2023-02-17T21:30:47.794Z,99.90
2023-02-17T21:33:14.892Z,99.90
2023-02-17T21:35:42.004Z,99.90
2023-02-17T21:38:10.282Z,99.90
2023-02-17T21:40:37.342Z,99.90
2023-02-17T21:43:23.268Z,99.90
2023-02-17T21:45:50.332Z,99.90
2023-02-17T21:48:17.371Z,99.90
2023-02-17T21:50:44.725Z,99.90
2023-02-17T21:53:11.767Z,99.90
2023-02-17T21:55:38.819Z,99.90
2023-02-17T21:58:05.859Z,99.90
2023-02-17T22:00:32.889Z,99.90
2023-02-17T22:02:59.930Z,99.90
2023-02-17T22:05:29.882Z,99.90
2023-02-17T22:07:56.943Z,99.90
2023-02-17T22:10:24.009Z,99.90
2023-02-17T22:12:52.837Z,99.90
2023-02-17T22:15:20.062Z,99.90
2023-02-17T22:17:47.994Z,99.90
2023-02-17T22:20:16.377Z,99.90
2023-02-17T22:22:43.474Z,99.90
2023-02-17T22:25:10.612Z,99.90
2023-02-17T22:27:37.615Z,99.90
2023-02-17T22:30:05.262Z,99.90
2023-02-17T22:32:32.381Z,99.90
2023-02-17T22:34:59.488Z,99.90
2023-02-17T22:37:26.503Z,99.90
2023-02-17T22:39:55.049Z,99.90
2023-02-17T22:42:22.574Z,99.90
2023-02-17T22:44:49.659Z,99.90
2023-02-17T22:47:16.946Z,99.90
2023-02-17T22:49:43.983Z,99.90
2023-02-17T22:52:11.368Z,99.90
2023-02-17T22:54:40.872Z,99.90
2023-02-17T22:57:07.950Z,99.90
2023-02-17T22:59:35.012Z,99.90
2023-02-17T23:02:02.013Z,99.90
2023-02-17T23:04:29.210Z,99.90
2023-02-17T23:06:56.520Z,99.90
2023-02-17T23:09:23.560Z,99.90
2023-02-17T23:11:50.711Z,99.90
2023-02-17T23:14:19.340Z,99.90
2023-02-17T23:16:46.539Z,99.90
2023-02-17T23:19:14.520Z,99.90
2023-02-17T23:21:45.111Z,99.90
2023-02-17T23:24:13.839Z,99.90
2023-02-17T23:26:40.975Z,99.90
2023-02-17T23:29:09.598Z,99.90
2023-02-17T23:31:37.087Z,99.90
2023-02-17T23:34:04.377Z,99.90
2023-02-17T23:36:31.447Z,99.90
2023-02-17T23:38:59.028Z,99.90
2023-02-17T23:41:27.182Z,99.90
2023-02-17T23:43:54.233Z,99.90
2023-02-17T23:46:21.545Z,99.90
2023-02-17T23:48:48.818Z,99.90
2023-02-17T23:51:16.950Z,99.90
2023-02-17T23:53:44.050Z,99.90
2023-02-17T23:56:13.160Z,99.90
2023-02-17T23:58:40.304Z,99.90
